Time;durP1;ratioP1;P1;durP2;ratioP2;P2;SDS_P1;SDS_P2;PMS_P1;PMS_P2;Temp;Humidity;BMP_temperature;BMP_pressure;BME280_temperature;BME280_humidity;BME280_pressure;Samples;Min_cycle;Max_cycle;Signal;HPM_P1;HPM_P2
2023/01/13 00:00:59;;;;;;;123.00;57.47;;;10.40;99.90;;;;;;5052867;28;20021;-66
2023/01/13 00:03:24;;;;;;;26.05;8.30;;;10.40;99.90;;;;;;5052732;28;20018;-66
2023/01/13 00:05:50;;;;;;;24.02;6.38;;;10.40;99.90;;;;;;5052742;28;20025;-66
2023/01/13 00:08:16;;;;;;;20.15;5.97;;;10.40;99.90;;;;;;5052673;28;20466;-66
2023/01/13 00:10:47;;;;;;;18.40;4.25;;;10.40;99.90;;;;;;5050766;28;20033;-66
2023/01/13 00:13:13;;;;;;;16.48;4.40;;;10.40;99.90;;;;;;5052492;28;20052;-66
2023/01/13 00:15:38;;;;;;;21.80;4.57;;;10.30;99.90;;;;;;5052537;28;20057;-66
2023/01/13 00:18:04;;;;;;;19.67;4.28;;;10.40;99.90;;;;;;5052787;28;20446;-66
2023/01/13 00:20:30;;;;;;;21.67;4.40;;;10.40;99.90;;;;;;5052581;28;20090;-66
2023/01/13 00:22:57;;;;;;;20.98;4.38;;;10.40;99.90;;;;;;5052504;28;20493;-66
2023/01/13 00:25:23;;;;;;;17.45;3.47;;;10.50;99.90;;;;;;5052006;28;20052;-66
2023/01/13 00:27:49;;;;;;;17.30;3.97;;;10.50;99.90;;;;;;5052528;28;20519;-66
2023/01/13 00:30:14;;;;;;;21.08;4.15;;;10.50;99.90;;;;;;5052284;28;20139;-66
2023/01/13 00:32:40;;;;;;;17.33;3.90;;;10.50;99.90;;;;;;5052259;28;20025;-66
2023/01/13 00:35:06;;;;;;;16.40;3.80;;;10.60;99.90;;;;;;5052694;28;20037;-66
2023/01/13 00:37:36;;;;;;;18.65;3.78;;;10.60;99.90;;;;;;5052172;28;20087;-66
2023/01/13 00:40:03;;;;;;;17.55;3.83;;;10.60;99.90;;;;;;5051626;28;20028;-66
2023/01/13 00:45:12;;;;;;;17.98;3.70;;;10.60;99.90;;;;;;5052095;28;20056;-66
2023/01/13 00:47:38;;;;;;;15.90;3.80;;;10.70;99.90;;;;;;5052308;28;20478;-67
2023/01/13 00:50:04;;;;;;;16.42;4.10;;;10.70;99.90;;;;;;5051959;28;20028;-67
2023/01/13 00:52:31;;;;;;;18.73;3.30;;;10.70;99.90;;;;;;5051764;28;20474;-67
2023/01/13 00:54:57;;;;;;;15.77;3.78;;;10.70;99.90;;;;;;5052049;28;20047;-67
2023/01/13 00:57:23;;;;;;;17.00;3.50;;;10.70;99.90;;;;;;5052257;28;20108;-66
2023/01/13 00:59:48;;;;;;;15.75;3.65;;;10.70;99.90;;;;;;5052023;28;20033;-67
2023/01/13 01:02:14;;;;;;;23.42;4.03;;;10.70;99.90;;;;;;5052323;28;20445;-67
2023/01/13 01:04:40;;;;;;;15.32;3.58;;;10.70;99.90;;;;;;5051862;28;20029;-66
2023/01/13 01:07:05;;;;;;;15.13;3.20;;;10.70;99.90;;;;;;5051210;28;20104;-66
2023/01/13 01:09:33;;;;;;;16.42;3.63;;;10.70;99.90;;;;;;5051774;28;20405;-66
2023/01/13 01:11:59;;;;;;;16.20;3.65;;;10.80;99.90;;;;;;5052309;28;20071;-66
2023/01/13 01:14:26;;;;;;;14.55;3.40;;;10.80;99.90;;;;;;5051910;28;20029;-66
2023/01/13 01:16:52;;;;;;;16.83;3.40;;;10.80;99.90;;;;;;5051753;28;20040;-66
2023/01/13 01:19:18;;;;;;;15.52;3.88;;;10.80;99.90;;;;;;5052196;28;20025;-66
2023/01/13 01:21:44;;;;;;;16.27;3.22;;;10.80;99.90;;;;;;5051595;28;20516;-66
2023/01/13 01:24:09;;;;;;;16.50;3.40;;;10.80;99.90;;;;;;5051774;28;20021;-66
2023/01/13 01:26:35;;;;;;;14.90;3.40;;;10.80;99.90;;;;;;5051718;28;20503;-65
2023/01/13 01:29:01;;;;;;;16.95;3.78;;;10.80;99.90;;;;;;5051676;28;20024;-66
2023/01/13 01:31:31;;;;;;;14.20;3.15;;;10.80;99.90;;;;;;5051688;28;20493;-66
2023/01/13 01:33:59;;;;;;;15.25;3.92;;;10.90;99.90;;;;;;5050197;28;20071;-66
2023/01/13 01:36:27;;;;;;;11.48;3.28;;;10.90;99.90;;;;;;5051447;28;20044;-66
2023/01/13 01:38:56;;;;;;;17.67;3.88;;;10.80;99.90;;;;;;5051731;28;20055;-66
2023/01/13 01:41:25;;;;;;;17.45;4.10;;;10.90;99.90;;;;;;5051110;28;20029;-67
2023/01/13 01:44:01;;;;;;;13.30;3.20;;;10.90;99.90;;;;;;5051477;28;20037;-66
2023/01/13 01:46:40;;;;;;;16.77;3.83;;;10.90;99.90;;;;;;5050622;28;20409;-67
2023/01/13 01:49:06;;;;;;;19.33;3.60;;;10.90;99.90;;;;;;5051605;28;20013;-67
2023/01/13 01:51:54;;;;;;;14.32;3.22;;;11.00;99.90;;;;;;5051518;28;20025;-66
2023/01/13 01:54:40;;;;;;;12.55;3.30;;;10.90;99.90;;;;;;5051582;28;20120;-66
2023/01/13 01:57:08;;;;;;;14.52;3.50;;;11.00;99.90;;;;;;5051488;28;20122;-66
2023/01/13 01:59:35;;;;;;;14.55;3.30;;;11.00;99.90;;;;;;5051405;28;20444;-66
2023/01/13 02:02:01;;;;;;;18.60;3.83;;;10.90;99.90;;;;;;5055085;28;20041;-66
2023/01/13 02:04:32;;;;;;;14.85;3.80;;;10.90;99.90;;;;;;5055046;28;20082;-66
2023/01/13 02:07:00;;;;;;;16.02;3.72;;;10.90;99.90;;;;;;5054728;28;20060;-65
2023/01/13 02:09:26;;;;;;;16.15;4.03;;;10.80;99.90;;;;;;5054803;28;20445;-66
2023/01/13 02:14:37;;;;;;;13.75;3.70;;;10.90;99.90;;;;;;5054695;28;20040;-66
2023/01/13 02:17:22;;;;;;;17.08;3.95;;;10.80;99.90;;;;;;5054866;28;20412;-66
2023/01/13 02:20:24;;;;;;;16.90;4.20;;;10.80;99.90;;;;;;5054342;28;20386;-66
2023/01/13 02:23:02;;;;;;;16.35;3.65;;;10.80;99.90;;;;;;5054545;28;20416;-66
2023/01/13 02:25:46;;;;;;;12.07;3.70;;;10.80;99.90;;;;;;5054641;28;20086;-66
2023/01/13 02:28:38;;;;;;;15.93;4.00;;;10.80;99.90;;;;;;5054532;28;20057;-66
2023/01/13 02:34:24;;;;;;;16.17;3.97;;;10.80;99.90;;;;;;5054436;28;20401;-66
2023/01/13 02:37:07;;;;;;;15.85;3.97;;;10.80;99.90;;;;;;5044927;28;20045;-66
2023/01/13 02:39:39;;;;;;;15.82;4.05;;;10.70;99.90;;;;;;5054314;28;20025;-66
2023/01/13 02:45:11;;;;;;;19.77;4.45;;;10.70;99.90;;;;;;5054365;28;20452;-65
2023/01/13 02:47:40;;;;;;;18.73;4.13;;;10.70;99.90;;;;;;5054063;28;20033;-66
2023/01/13 02:50:16;;;;;;;21.08;4.55;;;10.80;99.90;;;;;;5053724;28;20060;-66
2023/01/13 02:52:56;;;;;;;19.52;4.55;;;10.80;99.90;;;;;;5054035;28;20043;-66
2023/01/13 02:55:29;;;;;;;21.33;4.63;;;10.70;99.90;;;;;;5053916;28;20076;-66
2023/01/13 02:57:58;;;;;;;17.70;4.88;;;10.70;99.90;;;;;;5054403;28;20021;-65
2023/01/13 03:00:25;;;;;;;18.50;4.50;;;10.70;99.90;;;;;;5053987;28;20436;-66
2023/01/13 03:02:51;;;;;;;21.17;4.70;;;10.70;99.90;;;;;;5053703;28;20033;-65
2023/01/13 03:05:17;;;;;;;20.67;5.13;;;10.70;99.90;;;;;;5053819;28;20084;-66
2023/01/13 03:07:43;;;;;;;16.85;4.50;;;10.70;99.90;;;;;;5053967;28;20217;-66
2023/01/13 03:10:27;;;;;;;20.48;4.53;;;10.70;99.90;;;;;;5053753;28;20036;-66
2023/01/13 03:12:58;;;;;;;22.67;4.95;;;10.70;99.90;;;;;;5052625;28;20116;-66
2023/01/13 03:15:48;;;;;;;19.30;4.50;;;10.70;99.90;;;;;;5054042;28;20068;-65
2023/01/13 03:18:41;;;;;;;21.48;4.82;;;10.70;99.90;;;;;;5053339;28;20012;-66
2023/01/13 03:21:29;;;;;;;22.23;4.95;;;10.60;99.90;;;;;;5053755;28;20397;-66
2023/01/13 03:24:08;;;;;;;21.17;4.43;;;10.60;99.90;;;;;;5053713;28;20029;-66
2023/01/13 03:27:09;;;;;;;19.25;4.85;;;10.60;99.90;;;;;;5053553;28;20402;-66
2023/01/13 03:29:46;;;;;;;19.92;4.53;;;10.70;99.90;;;;;;5053439;28;20029;-66
2023/01/13 03:32:18;;;;;;;15.75;4.22;;;10.60;99.90;;;;;;5053032;28;20041;-66
2023/01/13 03:34:51;;;;;;;17.07;4.30;;;10.60;99.90;;;;;;5053152;28;20494;-66
2023/01/13 03:37:22;;;;;;;16.60;4.65;;;10.60;99.90;;;;;;5053329;28;20390;-66
2023/01/13 03:39:57;;;;;;;17.27;4.50;;;10.60;99.90;;;;;;5053667;28;20033;-66
2023/01/13 03:42:26;;;;;;;17.30;4.45;;;10.60;99.90;;;;;;5053162;28;20025;-65
2023/01/13 03:45:14;;;;;;;16.70;4.53;;;10.60;99.90;;;;;;5052956;28;20096;-66
2023/01/13 03:47:51;;;;;;;16.70;4.13;;;10.60;99.90;;;;;;5052497;28;20025;-66
2023/01/13 03:50:22;;;;;;;21.13;4.80;;;10.60;99.90;;;;;;5052973;28;20028;-66
2023/01/13 03:52:54;;;;;;;19.65;4.72;;;10.60;99.90;;;;;;5053019;28;20041;-66
2023/01/13 03:55:25;;;;;;;15.05;4.65;;;10.60;99.90;;;;;;5052869;28;20037;-65
2023/01/13 03:58:14;;;;;;;19.20;5.05;;;10.60;99.90;;;;;;5053381;28;20054;-66
2023/01/13 04:00:46;;;;;;;20.52;4.80;;;10.60;99.90;;;;;;5052467;28;20078;-65
2023/01/13 04:03:25;;;;;;;17.17;5.03;;;10.60;99.90;;;;;;5052858;28;20017;-65
2023/01/13 04:05:57;;;;;;;19.95;4.65;;;10.60;99.90;;;;;;5052745;28;20056;-66
2023/01/13 04:08:27;;;;;;;19.55;5.03;;;10.60;99.90;;;;;;5052817;28;20028;-66
2023/01/13 04:11:13;;;;;;;21.52;5.35;;;10.60;99.90;;;;;;5052643;28;20025;-66
2023/01/13 04:13:42;;;;;;;21.83;4.97;;;10.60;99.90;;;;;;5052649;28;20044;-66
2023/01/13 04:16:10;;;;;;;19.60;4.93;;;10.60;99.90;;;;;;5052601;28;20546;-66
2023/01/13 04:18:37;;;;;;;20.88;4.88;;;10.70;99.90;;;;;;5052321;28;20051;-66
2023/01/13 04:21:04;;;;;;;20.55;5.18;;;10.70;99.90;;;;;;5052513;28;20431;-66
2023/01/13 04:23:31;;;;;;;23.80;5.57;;;10.70;99.90;;;;;;5052075;28;20025;-66
2023/01/13 04:25:57;;;;;;;23.98;5.45;;;10.80;99.90;;;;;;5052369;28;20057;-66
2023/01/13 04:28:24;;;;;;;18.02;5.03;;;10.80;99.90;;;;;;5052512;28;20053;-65
2023/01/13 04:30:50;;;;;;;17.58;4.30;;;10.90;99.90;;;;;;5052004;28;20114;-66
2023/01/13 04:33:18;;;;;;;17.58;4.85;;;10.90;99.90;;;;;;5052295;28;20021;-65
2023/01/13 04:35:44;;;;;;;19.52;4.50;;;11.00;99.90;;;;;;5052554;28;20052;-66
2023/01/13 04:38:15;;;;;;;20.50;4.93;;;11.00;99.90;;;;;;5052140;28;20025;-66
2023/01/13 04:40:42;;;;;;;22.45;5.28;;;11.00;99.90;;;;;;5052178;28;20159;-66
2023/01/13 04:43:08;;;;;;;15.70;4.10;;;11.10;99.90;;;;;;5051928;28;20507;-66
2023/01/13 04:45:34;;;;;;;16.02;4.50;;;11.10;99.90;;;;;;5051542;28;20040;-65
2023/01/13 04:47:59;;;;;;;14.60;3.90;;;11.10;99.90;;;;;;5052492;28;20508;-66
2023/01/13 04:50:25;;;;;;;17.55;4.20;;;11.20;99.90;;;;;;5050777;28;20474;-65
2023/01/13 04:52:52;;;;;;;15.27;3.63;;;11.20;99.90;;;;;;5052123;28;20025;-65
2023/01/13 04:55:20;;;;;;;14.00;3.60;;;11.20;99.90;;;;;;5051882;28;20079;-66
2023/01/13 04:57:46;;;;;;;14.27;4.28;;;11.30;99.90;;;;;;5052452;28;20100;-65
2023/01/13 05:00:14;;;;;;;11.63;3.50;;;11.30;99.90;;;;;;5051579;28;20113;-66
2023/01/13 05:02:40;;;;;;;9.38;3.10;;;11.30;99.90;;;;;;5051940;28;20056;-66
2023/01/13 05:05:06;;;;;;;8.65;3.38;;;11.40;99.90;;;;;;5050650;28;20481;-66
2023/01/13 05:07:32;;;;;;;12.13;3.50;;;11.40;99.90;;;;;;5052232;28;20124;-65
2023/01/13 05:09:58;;;;;;;11.27;3.38;;;11.40;99.90;;;;;;5051852;28;20529;-65
2023/01/13 05:18:10;;;;;;;9.73;2.92;;;11.60;99.90;;;;;;4990654;28;20057;-65
2023/01/13 05:20:35;;;;;;;10.02;2.85;;;11.60;99.90;;;;;;4990392;28;20030;-65
2023/01/13 05:25:47;;;;;;;10.25;2.78;;;11.60;99.90;;;;;;4990442;28;20030;-66
2023/01/13 05:28:13;;;;;;;8.13;2.45;;;11.60;99.90;;;;;;4989893;28;20117;-65
2023/01/13 05:30:41;;;;;;;10.63;2.55;;;11.60;99.90;;;;;;4990097;28;20105;-65
2023/01/13 05:33:08;;;;;;;5.55;1.80;;;11.70;99.90;;;;;;4990259;28;20160;-65
2023/01/13 05:35:36;;;;;;;5.00;1.83;;;11.60;99.90;;;;;;4991491;28;20078;-64
2023/01/13 05:38:01;;;;;;;4.95;1.73;;;11.60;99.90;;;;;;4977725;28;20101;-65
2023/01/13 05:43:19;;;;;;;5.60;1.80;;;11.50;99.90;;;;;;4993373;28;20415;-65
2023/01/13 05:45:56;;;;;;;3.30;1.50;;;11.40;99.90;;;;;;4993660;28;20565;-65
2023/01/13 05:48:40;;;;;;;3.70;1.60;;;11.40;99.90;;;;;;4993835;28;20037;-65
2023/01/13 05:51:08;;;;;;;5.20;1.70;;;11.30;99.90;;;;;;4994381;28;20034;-65
2023/01/13 05:53:35;;;;;;;6.22;1.75;;;11.50;99.90;;;;;;5020018;28;20033;-65
2023/01/13 05:56:04;;;;;;;5.05;1.52;;;11.50;99.90;;;;;;5055193;28;20408;-65
2023/01/13 05:58:30;;;;;;;6.03;1.60;;;11.50;99.90;;;;;;5054735;28;20017;-65
2023/01/13 06:01:05;;;;;;;5.80;1.83;;;11.60;99.90;;;;;;5055735;28;20033;-66
2023/01/13 06:03:31;;;;;;;9.05;1.85;;;11.60;99.90;;;;;;5055160;28;20028;-65
2023/01/13 06:06:00;;;;;;;10.07;2.28;;;11.60;99.90;;;;;;5055080;28;20167;-65
2023/01/13 06:08:26;;;;;;;8.70;1.98;;;11.70;99.90;;;;;;5055401;28;20381;-65
2023/01/13 06:10:51;;;;;;;11.07;2.10;;;11.60;99.90;;;;;;5055006;28;20032;-65
2023/01/13 06:13:17;;;;;;;11.10;2.63;;;11.70;99.90;;;;;;5054421;28;20520;-65
2023/01/13 06:15:43;;;;;;;12.07;2.65;;;11.70;99.90;;;;;;5054993;28;20060;-65
2023/01/13 06:18:08;;;;;;;14.93;2.72;;;11.60;99.90;;;;;;5054898;28;20029;-65
2023/01/13 06:20:35;;;;;;;14.60;3.00;;;11.60;99.90;;;;;;5054795;28;20079;-65
2023/01/13 06:23:01;;;;;;;17.60;2.88;;;11.60;99.90;;;;;;5054797;28;20020;-65
2023/01/13 06:25:35;;;;;;;14.63;2.80;;;11.60;99.90;;;;;;5054642;28;20032;-65
2023/01/13 06:28:01;;;;;;;19.00;3.45;;;11.70;99.90;;;;;;5054137;28;20025;-65
2023/01/13 06:30:31;;;;;;;18.67;3.50;;;11.60;99.90;;;;;;5055095;28;20021;-65
2023/01/13 06:32:59;;;;;;;17.55;3.17;;;11.40;99.90;;;;;;5054704;28;20021;-65
2023/01/13 06:35:29;;;;;;;19.85;3.50;;;11.30;99.90;;;;;;5054340;28;20498;-64
2023/01/13 06:37:57;;;;;;;16.27;3.05;;;11.30;99.90;;;;;;5054348;28;20075;-65
2023/01/13 06:40:23;;;;;;;19.52;3.92;;;11.30;99.90;;;;;;5054470;28;20090;-65
2023/01/13 06:45:36;;;;;;;20.17;3.25;;;11.40;99.90;;;;;;5054513;28;20098;-65
2023/01/13 06:48:02;;;;;;;23.90;3.63;;;11.40;99.90;;;;;;5054029;28;20037;-64
2023/01/13 06:50:29;;;;;;;22.70;3.85;;;11.40;99.90;;;;;;5054343;28;20100;-65
2023/01/13 06:52:55;;;;;;;23.08;3.63;;;11.50;99.90;;;;;;5054268;28;20786;-65
2023/01/13 06:55:20;;;;;;;20.90;3.78;;;11.50;99.90;;;;;;5053894;28;20029;-64
2023/01/13 06:57:56;;;;;;;21.67;4.07;;;11.60;99.90;;;;;;5054069;28;20025;-65
2023/01/13 07:00:24;;;;;;;22.67;4.18;;;11.60;99.90;;;;;;5054011;28;20021;-65
2023/01/13 07:02:50;;;;;;;24.48;4.35;;;11.70;99.90;;;;;;5053976;28;20029;-64
2023/01/13 07:05:17;;;;;;;27.02;4.25;;;11.70;99.90;;;;;;5054355;28;20462;-64
2023/01/13 07:07:43;;;;;;;21.83;3.88;;;11.70;99.90;;;;;;5053949;28;20056;-64
2023/01/13 07:10:20;;;;;;;29.75;4.55;;;11.60;99.90;;;;;;5053572;28;20447;-64
2023/01/13 07:15:55;;;;;;;26.05;4.10;;;11.50;99.90;;;;;;5012016;28;20442;-64
2023/01/13 07:18:20;;;;;;;22.83;4.50;;;11.60;99.90;;;;;;5011616;28;20038;-65
2023/01/13 07:20:57;;;;;;;26.17;4.82;;;11.70;99.90;;;;;;5011419;28;20033;-64
2023/01/13 07:23:25;;;;;;;27.27;5.00;;;11.80;99.90;;;;;;5011651;28;20034;-63
2023/01/13 07:25:53;;;;;;;32.15;4.50;;;11.80;99.90;;;;;;5011138;28;20026;-62
2023/01/13 07:28:18;;;;;;;23.15;4.40;;;11.70;99.90;;;;;;5012046;28;20062;-63
2023/01/13 07:30:44;;;;;;;28.27;5.22;;;11.60;99.90;;;;;;5011355;28;20165;-63
2023/01/13 07:33:10;;;;;;;34.15;5.45;;;11.50;99.90;;;;;;5011440;28;20482;-64
2023/01/13 07:35:36;;;;;;;27.35;4.68;;;11.40;99.90;;;;;;5011257;28;20449;-64
2023/01/13 07:38:01;;;;;;;29.73;4.95;;;11.30;99.90;;;;;;5011412;28;20049;-63
2023/01/13 07:40:27;;;;;;;29.70;5.28;;;11.10;99.90;;;;;;5011240;28;20491;-64
2023/01/13 07:45:37;;;;;;;30.55;6.05;;;11.10;99.90;;;;;;5011411;28;20069;-64
2023/01/13 07:48:03;;;;;;;38.55;6.22;;;11.10;99.90;;;;;;5011565;28;20030;-64
2023/01/13 07:50:29;;;;;;;36.42;5.82;;;11.20;99.90;;;;;;5028435;28;20095;-64
2023/01/13 07:52:57;;;;;;;33.85;6.13;;;11.30;99.90;;;;;;5032560;28;20029;-63
2023/01/13 07:55:23;;;;;;;41.85;7.35;;;11.40;99.90;;;;;;5033096;28;20034;-64
2023/01/13 07:57:48;;;;;;;33.53;6.05;;;11.50;99.90;;;;;;5032416;28;20540;-64
2023/01/13 08:00:15;;;;;;;36.42;6.93;;;11.60;99.90;;;;;;5032142;28;20037;-64
2023/01/13 08:02:40;;;;;;;32.25;6.03;;;11.70;99.90;;;;;;5032195;28;20115;-65
2023/01/13 08:05:07;;;;;;;36.20;6.25;;;11.80;99.90;;;;;;5032655;28;20065;-63
2023/01/13 08:07:33;;;;;;;28.70;5.25;;;11.70;99.90;;;;;;5032597;28;20037;-64
2023/01/13 08:09:58;;;;;;;37.00;6.68;;;11.70;99.90;;;;;;5030692;28;20033;-65
2023/01/13 08:15:09;;;;;;;30.27;6.05;;;11.60;99.90;;;;;;5033103;28;20044;-62
2023/01/13 08:17:35;;;;;;;41.60;7.13;;;11.70;99.90;;;;;;5032605;28;20021;-64
2023/01/13 08:20:03;;;;;;;33.03;5.93;;;11.60;99.90;;;;;;5031262;28;20406;-64
2023/01/13 08:22:31;;;;;;;32.40;5.60;;;11.70;99.90;;;;;;5032400;28;20022;-64
2023/01/13 08:25:00;;;;;;;34.17;6.07;;;11.90;99.90;;;;;;5032437;28;20069;-64
2023/01/13 08:27:26;;;;;;;32.50;5.95;;;13.00;99.90;;;;;;5032917;28;20495;-64
2023/01/13 08:29:52;;;;;;;23.35;5.72;;;13.70;99.90;;;;;;5032460;28;20025;-64
2023/01/13 08:32:17;;;;;;;20.40;5.45;;;14.40;99.90;;;;;;5032441;28;20397;-64
2023/01/13 08:34:44;;;;;;;24.27;7.13;;;14.90;99.90;;;;;;5032450;28;20482;-64
2023/01/13 08:37:09;;;;;;;31.05;9.35;;;14.10;99.90;;;;;;5032116;28;20033;-64
2023/01/13 08:39:35;;;;;;;33.60;11.38;;;13.60;99.90;;;;;;5032618;28;20025;-64
2023/01/13 08:42:02;;;;;;;30.45;6.13;;;13.40;99.90;;;;;;5032166;28;20448;-63
2023/01/13 08:44:30;;;;;;;28.50;5.93;;;13.00;99.90;;;;;;5043723;28;20041;-64
2023/01/13 08:46:57;;;;;;;22.35;6.50;;;12.80;99.90;;;;;;5052372;28;20071;-64
2023/01/13 08:49:23;;;;;;;21.73;5.10;;;12.60;99.90;;;;;;5052018;28;20025;-64
2023/01/13 08:51:50;;;;;;;22.40;6.63;;;12.60;99.90;;;;;;5051799;28;20039;-64
2023/01/13 08:54:16;;;;;;;24.75;6.13;;;12.60;99.90;;;;;;5052312;28;20389;-64
2023/01/13 08:56:43;;;;;;;22.63;5.32;;;12.60;99.90;;;;;;5052064;28;20043;-64
2023/01/13 08:59:15;;;;;;;25.67;5.70;;;12.80;99.90;;;;;;5050766;28;20067;-64
2023/01/13 09:01:42;;;;;;;16.15;5.30;;;13.60;99.90;;;;;;5052072;28;20058;-65
2023/01/13 09:04:16;;;;;;;23.20;4.95;;;13.80;99.90;;;;;;5052368;28;20029;-64
2023/01/13 09:06:42;;;;;;;20.02;4.70;;;13.60;99.90;;;;;;5051436;28;20036;-64
2023/01/13 09:09:07;;;;;;;20.60;4.88;;;13.60;99.90;;;;;;5051831;28;20025;-64
2023/01/13 09:14:22;;;;;;;17.75;4.13;;;13.10;99.90;;;;;;5056153;28;20040;-64
2023/01/13 09:16:48;;;;;;;14.98;3.67;;;13.50;99.90;;;;;;5055970;28;20108;-64
2023/01/13 09:19:14;;;;;;;16.48;4.30;;;15.60;99.90;;;;;;5055801;28;20100;-64
2023/01/13 09:21:40;;;;;;;18.98;4.35;;;16.70;99.90;;;;;;5055931;28;20470;-64
2023/01/13 09:24:06;;;;;;;18.92;4.18;;;16.30;99.90;;;;;;5055898;28;20028;-64
2023/01/13 09:26:32;;;;;;;15.80;4.05;;;17.30;99.90;;;;;;5055768;28;20101;-63
2023/01/13 09:28:58;;;;;;;15.07;4.35;;;19.20;99.90;;;;;;5055953;28;20055;-64
2023/01/13 09:31:23;;;;;;;15.98;4.22;;;19.70;99.90;;;;;;5055549;28;20109;-64
2023/01/13 09:36:33;;;;;;;18.05;4.40;;;20.20;99.90;;;;;;5055554;28;20040;-63
2023/01/13 09:38:59;;;;;;;13.48;4.05;;;19.40;99.90;;;;;;5055811;28;20021;-64
2023/01/13 09:44:23;;;;;;;13.90;3.65;;;20.80;99.90;;;;;;5055284;28;20048;-63
2023/01/13 09:46:53;;;;;;;14.65;3.97;;;21.90;99.90;;;;;;5055515;28;20032;-63
2023/01/13 09:49:28;;;;;;;16.63;4.68;;;22.10;99.90;;;;;;5055476;28;20443;-63
2023/01/13 09:52:15;;;;;;;13.07;4.13;;;21.80;99.90;;;;;;5055232;28;20017;-63
2023/01/13 09:55:01;;;;;;;17.25;4.22;;;23.20;99.90;;;;;;5055264;28;20037;-63
2023/01/13 09:57:36;;;;;;;13.38;3.95;;;23.40;99.90;;;;;;5055237;28;20013;-64
2023/01/13 10:00:14;;;;;;;17.25;4.65;;;23.00;99.90;;;;;;5055368;28;20102;-64
2023/01/13 10:02:52;;;;;;;17.33;4.32;;;23.40;99.90;;;;;;5055571;28;20105;-63
2023/01/13 10:05:20;;;;;;;18.15;4.25;;;23.60;99.90;;;;;;5054739;28;20037;-63
2023/01/13 10:07:53;;;;;;;18.05;4.25;;;23.00;99.90;;;;;;5055080;28;20052;-63
2023/01/13 10:10:57;;;;;;;18.52;4.55;;;20.90;99.90;;;;;;5055037;28;20453;-64
2023/01/13 10:13:27;;;;;;;18.25;4.75;;;18.80;99.90;;;;;;5041663;28;20036;-63
2023/01/13 10:15:55;;;;;;;16.60;4.50;;;18.10;99.90;;;;;;5054896;28;20478;-64
2023/01/13 10:18:25;;;;;;;18.33;4.03;;;18.70;99.90;;;;;;5054960;28;20501;-63
2023/01/13 10:21:22;;;;;;;22.83;5.18;;;18.10;99.90;;;;;;5054247;28;20087;-63
2023/01/13 10:24:06;;;;;;;18.20;4.57;;;17.20;99.90;;;;;;5055221;28;20033;-63
2023/01/13 10:26:43;;;;;;;;;;;16.80;99.90;;;;;;5055054;28;20025;-63
2023/01/13 10:29:23;;;;;;;21.02;4.93;;;16.50;99.90;;;;;;5054690;28;19912;-63
2023/01/13 10:31:50;;;;;;;22.05;5.13;;;15.90;99.90;;;;;;5054567;28;20381;-63
2023/01/13 10:34:16;;;;;;;18.92;4.38;;;15.90;99.90;;;;;;5054032;28;20501;-63
2023/01/13 10:37:06;;;;;;;21.27;4.70;;;16.00;99.90;;;;;;5054991;28;20040;-63
2023/01/13 10:39:44;;;;;;;18.30;4.65;;;15.80;99.90;;;;;;5053961;28;20029;-64
2023/01/13 10:42:18;;;;;;;18.67;4.22;;;15.60;99.90;;;;;;5054787;28;20040;-64
2023/01/13 10:45:02;;;;;;;19.65;4.97;;;15.40;99.90;;;;;;5054502;28;20447;-64
2023/01/13 10:47:34;;;;;;;20.52;4.72;;;15.30;99.90;;;;;;5053708;28;20037;-64
2023/01/13 10:50:09;;;;;;;21.80;4.90;;;15.40;99.90;;;;;;5054133;28;20025;-64
2023/01/13 10:52:39;;;;;;;18.20;4.35;;;15.40;99.90;;;;;;5052845;28;20397;-63
2023/01/13 10:55:30;;;;;;;18.70;4.50;;;15.60;99.90;;;;;;5054045;28;20037;-64
2023/01/13 10:57:56;;;;;;;20.38;5.45;;;15.30;99.90;;;;;;5054429;28;20018;-63
2023/01/13 11:00:27;;;;;;;23.63;5.63;;;15.40;99.90;;;;;;5054106;28;20040;-63
2023/01/13 11:03:40;;;;;;;19.70;5.07;;;15.40;99.90;;;;;;5053522;28;20029;-64
2023/01/13 11:06:07;;;;;;;17.90;5.32;;;15.40;99.90;;;;;;4992916;28;20110;-63
2023/01/13 11:09:01;;;;;;;20.20;4.47;;;15.20;99.90;;;;;;4992379;28;20062;-63
2023/01/13 11:11:38;;;;;;;23.00;5.03;;;15.10;99.90;;;;;;4990018;28;20070;-64
2023/01/13 11:17:47;;;;;;;23.10;5.07;;;15.30;99.90;;;;;;4914927;29;20051;-64
2023/01/13 11:20:29;;;;;;;26.67;5.00;;;15.20;99.90;;;;;;4915376;29;20055;-63
2023/01/13 11:22:58;;;;;;;24.90;6.10;;;15.10;99.90;;;;;;4915662;29;20048;-64
2023/01/13 11:25:41;;;;;;;23.00;5.43;;;15.20;99.90;;;;;;4915428;29;20028;-64
2023/01/13 11:28:38;;;;;;;24.48;5.38;;;15.00;99.90;;;;;;4915504;29;20091;-63
2023/01/13 11:31:41;;;;;;;20.42;5.15;;;15.10;99.90;;;;;;4914820;29;20043;-64
2023/01/13 11:34:16;;;;;;;21.40;5.18;;;15.20;99.90;;;;;;4911719;29;20429;-63
2023/01/13 11:36:54;;;;;;;23.00;6.10;;;15.40;99.90;;;;;;4915145;29;20035;-63
2023/01/13 11:39:38;;;;;;;21.83;5.38;;;15.40;99.90;;;;;;4930656;28;20079;-63
2023/01/13 11:42:24;;;;;;;23.23;5.47;;;15.10;99.90;;;;;;4972417;28;20049;-64
2023/01/13 11:45:03;;;;;;;22.33;6.20;;;14.90;99.90;;;;;;4971812;28;20054;-64
2023/01/13 11:47:31;;;;;;;20.42;4.85;;;14.70;99.90;;;;;;4992104;28;20570;-63
2023/01/13 11:49:57;;;;;;;23.45;5.93;;;14.80;99.90;;;;;;5053572;28;20013;-63
2023/01/13 11:52:49;;;;;;;26.05;6.00;;;15.10;99.90;;;;;;5053214;28;20025;-63
2023/01/13 11:55:29;;;;;;;24.08;5.22;;;17.80;99.90;;;;;;5053086;28;20029;-64
2023/01/13 11:58:14;;;;;;;21.92;5.53;;;17.70;99.90;;;;;;5053025;28;20028;-64
2023/01/13 12:01:08;;;;;;;21.52;5.07;;;19.60;99.90;;;;;;5052453;28;20036;-64
2023/01/13 12:04:01;;;;;;;22.23;4.95;;;21.50;99.90;;;;;;4991288;28;20132;-63
2023/01/13 12:06:40;;;;;;;26.23;5.88;;;20.20;99.90;;;;;;4978028;28;20034;-63
2023/01/13 12:09:36;;;;;;;24.92;5.22;;;20.40;99.90;;;;;;4991631;28;20039;-63
2023/01/13 12:12:35;;;;;;;22.65;5.57;;;20.80;99.90;;;;;;4984774;28;20573;-64
2023/01/13 12:15:13;;;;;;;25.50;6.00;;;17.70;99.90;;;;;;4990672;28;20430;-64
2023/01/13 12:17:50;;;;;;;24.77;5.45;;;16.70;99.90;;;;;;4991741;28;20031;-63
2023/01/13 12:20:41;;;;;;;21.08;5.32;;;17.30;99.90;;;;;;4991174;28;20476;-64
2023/01/13 12:23:20;;;;;;;25.33;5.50;;;16.80;99.90;;;;;;4991590;28;20450;-64
2023/01/13 12:25:51;;;;;;;21.77;5.65;;;16.80;99.90;;;;;;4991360;28;20094;-64
2023/01/13 12:28:36;;;;;;;24.23;5.07;;;16.30;99.90;;;;;;4990638;28;20426;-64
2023/01/13 12:31:02;;;;;;;23.67;5.15;;;16.00;99.90;;;;;;4990903;28;20062;-63
2023/01/13 12:33:46;;;;;;;20.67;5.07;;;15.70;99.90;;;;;;4990796;28;20038;-63
2023/01/13 12:36:12;;;;;;;;;;;15.50;99.90;;;;;;4991147;28;20050;-63
2023/01/13 12:38:58;;;;;;;17.80;5.03;;;15.40;99.90;;;;;;4991226;28;20426;-63
2023/01/13 12:41:30;;;;;;;22.25;5.30;;;15.20;99.90;;;;;;5044731;28;20025;-64
2023/01/13 12:46:51;;;;;;;22.98;5.07;;;15.00;99.90;;;;;;5052422;28;20527;-63
2023/01/13 12:49:23;;;;;;;24.90;5.35;;;14.60;99.90;;;;;;5052062;28;20086;-64
2023/01/13 12:51:54;;;;;;;24.02;5.70;;;14.80;99.90;;;;;;5052560;28;20024;-63
2023/01/13 12:54:29;;;;;;;24.98;5.22;;;15.30;99.90;;;;;;5052266;28;20032;-64
2023/01/13 12:56:58;;;;;;;23.63;5.72;;;15.40;99.90;;;;;;5052076;28;20037;-63
2023/01/13 12:59:24;;;;;;;23.35;5.40;;;15.40;99.90;;;;;;5051589;28;20388;-63
2023/01/13 13:02:10;;;;;;;27.13;5.15;;;15.40;99.90;;;;;;5052020;28;20109;-63
2023/01/13 13:04:50;;;;;;;23.02;5.32;;;15.30;99.90;;;;;;5051930;28;20025;-64
2023/01/13 13:07:29;;;;;;;21.83;4.90;;;15.20;99.90;;;;;;5052032;28;20060;-64
2023/01/13 13:10:00;;;;;;;19.67;4.43;;;15.50;99.90;;;;;;5051989;28;20028;-64
2023/01/13 13:15:32;;;;;;;19.98;4.93;;;15.40;99.90;;;;;;5052236;28;20106;-63
2023/01/13 13:18:01;;;;;;;19.08;4.93;;;15.50;99.90;;;;;;5051800;28;20032;-63
2023/01/13 13:20:55;;;;;;;25.27;5.07;;;15.90;99.90;;;;;;5052107;28;20025;-64
2023/01/13 13:23:35;;;;;;;22.17;4.72;;;15.70;99.90;;;;;;5051731;28;20539;-64
2023/01/13 13:26:44;;;;;;;20.95;4.82;;;15.70;99.90;;;;;;5051968;28;20029;-64
2023/01/13 13:29:31;;;;;;;18.85;4.40;;;16.00;99.90;;;;;;5051714;28;20147;-64
2023/01/13 13:32:09;;;;;;;21.27;4.60;;;15.70;99.90;;;;;;5051630;28;20033;-64
2023/01/13 13:34:41;;;;;;;20.33;4.68;;;15.60;99.90;;;;;;5051587;28;20021;-64
2023/01/13 13:46:45;;;;;;;15.90;4.30;;;15.20;99.90;;;;;;5051753;28;20104;-64
2023/01/13 13:48:51;;;;;;;23.35;4.93;;;15.10;99.90;;;;;;5051881;28;20036;-64
2023/01/13 13:51:38;;;;;;;23.23;4.50;;;15.20;99.90;;;;;;5051565;28;20016;-63
2023/01/13 13:54:04;;;;;;;23.85;4.63;;;15.20;99.90;;;;;;5051486;28;20386;-64
2023/01/13 13:56:36;;;;;;;21.80;5.00;;;15.20;99.90;;;;;;5052005;28;20033;-64
2023/01/13 13:59:02;;;;;;;20.40;4.82;;;15.20;99.90;;;;;;5055198;28;20033;-64
2023/01/13 14:01:35;;;;;;;22.55;5.13;;;15.30;99.90;;;;;;5055272;28;20057;-64
2023/01/13 14:04:24;;;;;;;24.70;5.55;;;15.40;99.90;;;;;;5055178;28;20211;-64